Time;durP1;ratioP1;P1;durP2;ratioP2;P2;SDS_P1;SDS_P2;PMS_P1;PMS_P2;Temp;Humidity;BMP_temperature;BMP_pressure;BME280_temperature;BME280_humidity;BME280_pressure;Samples;Min_cycle;Max_cycle;Signal;HPM_P1;HPM_P2
2023/07/14 00:02:19;;;;;;;3.1;2.3;;;;;;;;;;;;;
2023/07/14 00:04:46;;;;;;;2.7;2.3;;;;;;;;;;;;;
2023/07/14 00:07:11;;;;;;;3;2.2;;;;;;;;;;;;;
2023/07/14 00:09:42;;;;;;;2.4;2.2;;;;;;;;;;;;;
2023/07/14 00:12:01;;;;;;;3.4;2.1;;;;;;;;;;;;;
2023/07/14 00:14:27;;;;;;;4.5;2.6;;;;;;;;;;;;;
2023/07/14 00:16:52;;;;;;;3.9;2.6;;;;;;;;;;;;;
2023/07/14 00:19:18;;;;;;;3.1;2.3;;;;;;;;;;;;;
2023/07/14 00:21:43;;;;;;;4.1;2.8;;;;;;;;;;;;;
2023/07/14 00:24:09;;;;;;;3.3;2.5;;;;;;;;;;;;;
2023/07/14 00:26:33;;;;;;;4.4;2.7;;;;;;;;;;;;;
2023/07/14 00:28:59;;;;;;;2.9;2.6;;;;;;;;;;;;;
2023/07/14 00:31:24;;;;;;;4.4;2.6;;;;;;;;;;;;;
2023/07/14 00:33:49;;;;;;;2.4;2.2;;;;;;;;;;;;;
2023/07/14 00:36:35;;;;;;;2.7;2.5;;;;;;;;;;;;;
2023/07/14 00:39:00;;;;;;;3.3;2.4;;;;;;;;;;;;;
2023/07/14 00:41:25;;;;;;;2.5;2.3;;;;;;;;;;;;;
2023/07/14 00:43:52;;;;;;;2.4;2.2;;;;;;;;;;;;;
2023/07/14 00:46:17;;;;;;;3.3;2.5;;;;;;;;;;;;;
2023/07/14 00:48:42;;;;;;;2.7;2.4;;;;;;;;;;;;;
2023/07/14 00:51:07;;;;;;;3.2;2.3;;;;;;;;;;;;;
2023/07/14 00:53:32;;;;;;;4.2;2.4;;;;;;;;;;;;;
2023/07/14 00:55:59;;;;;;;3.1;2.1;;;;;;;;;;;;;
2023/07/14 00:58:24;;;;;;;2.2;2;;;;;;;;;;;;;
2023/07/14 01:00:52;;;;;;;3;2.2;;;;;;;;;;;;;
2023/07/14 01:03:19;;;;;;;2.7;2.5;;;;;;;;;;;;;
2023/07/14 01:05:44;;;;;;;2.7;2.3;;;;;;;;;;;;;
2023/07/14 01:08:12;;;;;;;4.9;2.4;;;;;;;;;;;;;
2023/07/14 01:10:37;;;;;;;2.4;2.2;;;;;;;;;;;;;
2023/07/14 01:13:03;;;;;;;3.5;2.2;;;;;;;;;;;;;
2023/07/14 01:15:28;;;;;;;2.5;2.2;;;;;;;;;;;;;
2023/07/14 01:17:57;;;;;;;2.7;2.4;;;;;;;;;;;;;
2023/07/14 01:20:22;;;;;;;3;2.4;;;;;;;;;;;;;
2023/07/14 01:22:47;;;;;;;3.7;2.3;;;;;;;;;;;;;
2023/07/14 01:25:13;;;;;;;6.7;2.5;;;;;;;;;;;;;
2023/07/14 01:27:38;;;;;;;2.2;2;;;;;;;;;;;;;
2023/07/14 01:30:03;;;;;;;3.1;2.2;;;;;;;;;;;;;
2023/07/14 01:32:29;;;;;;;4.8;2.3;;;;;;;;;;;;;
2023/07/14 01:34:55;;;;;;;3.5;2.3;;;;;;;;;;;;;
2023/07/14 01:37:19;;;;;;;2.6;2.2;;;;;;;;;;;;;
2023/07/14 01:39:45;;;;;;;2.3;2.1;;;;;;;;;;;;;
2023/07/14 01:42:10;;;;;;;2.5;2.2;;;;;;;;;;;;;
2023/07/14 01:44:37;;;;;;;2.5;2.3;;;;;;;;;;;;;
2023/07/14 01:47:02;;;;;;;3.3;2.5;;;;;;;;;;;;;
2023/07/14 01:49:27;;;;;;;2.3;2.1;;;;;;;;;;;;;
2023/07/14 01:51:52;;;;;;;3.4;2.4;;;;;;;;;;;;;
2023/07/14 01:54:17;;;;;;;3.2;2.3;;;;;;;;;;;;;
2023/07/14 01:56:44;;;;;;;2.2;2;;;;;;;;;;;;;
2023/07/14 01:59:09;;;;;;;3.2;2.5;;;;;;;;;;;;;
2023/07/14 02:01:35;;;;;;;3.8;2.6;;;;;;;;;;;;;
2023/07/14 02:04:00;;;;;;;3.6;2.2;;;;;;;;;;;;;
2023/07/14 02:06:26;;;;;;;3.3;2.3;;;;;;;;;;;;;
2023/07/14 02:08:52;;;;;;;3.9;2.7;;;;;;;;;;;;;
2023/07/14 02:11:17;;;;;;;2.8;2.4;;;;;;;;;;;;;
2023/07/14 02:13:42;;;;;;;2.8;2.3;;;;;;;;;;;;;
2023/07/14 02:16:14;;;;;;;3.1;2.3;;;;;;;;;;;;;
2023/07/14 02:18:36;;;;;;;2.6;2.3;;;;;;;;;;;;;
2023/07/14 02:21:02;;;;;;;4.4;2.4;;;;;;;;;;;;;
2023/07/14 02:23:27;;;;;;;2.3;2.1;;;;;;;;;;;;;
2023/07/14 02:25:56;;;;;;;2.5;2.3;;;;;;;;;;;;;
2023/07/14 02:28:21;;;;;;;2.9;2.6;;;;;;;;;;;;;
2023/07/14 02:30:46;;;;;;;3.3;2.2;;;;;;;;;;;;;
2023/07/14 02:33:12;;;;;;;3.4;2.4;;;;;;;;;;;;;
2023/07/14 02:35:37;;;;;;;2.6;2.2;;;;;;;;;;;;;
2023/07/14 02:38:03;;;;;;;2.8;2.3;;;;;;;;;;;;;
2023/07/14 02:40:27;;;;;;;3.1;2.2;;;;;;;;;;;;;
2023/07/14 02:42:52;;;;;;;3.1;2.4;;;;;;;;;;;;;
2023/07/14 02:45:18;;;;;;;2.4;2.2;;;;;;;;;;;;;
2023/07/14 02:47:45;;;;;;;2.5;2.3;;;;;;;;;;;;;
2023/07/14 02:50:10;;;;;;;4;2.3;;;;;;;;;;;;;
2023/07/14 02:52:37;;;;;;;23.5;13.8;;;;;;;;;;;;;
2023/07/14 02:55:02;;;;;;;43.4;25.2;;;;;;;;;;;;;
2023/07/14 02:57:29;;;;;;;10.4;5.5;;;;;;;;;;;;;
2023/07/14 02:59:54;;;;;;;3.1;2.7;;;;;;;;;;;;;
2023/07/14 03:02:21;;;;;;;3.6;2.5;;;;;;;;;;;;;
2023/07/14 03:04:45;;;;;;;3.2;2.7;;;;;;;;;;;;;
2023/07/14 03:07:11;;;;;;;3.5;2.6;;;;;;;;;;;;;
2023/07/14 03:09:36;;;;;;;2.9;2.6;;;;;;;;;;;;;
2023/07/14 03:12:03;;;;;;;3;2.6;;;;;;;;;;;;;
2023/07/14 03:14:28;;;;;;;2.7;2.4;;;;;;;;;;;;;
2023/07/14 03:16:54;;;;;;;4.6;2.3;;;;;;;;;;;;;
2023/07/14 03:19:19;;;;;;;2.8;2.2;;;;;;;;;;;;;
2023/07/14 03:21:46;;;;;;;2.6;2.1;;;;;;;;;;;;;
2023/07/14 03:24:11;;;;;;;3.4;2.2;;;;;;;;;;;;;
2023/07/14 03:26:37;;;;;;;2.5;2.3;;;;;;;;;;;;;
2023/07/14 03:29:03;;;;;;;2.6;2.1;;;;;;;;;;;;;
2023/07/14 03:31:28;;;;;;;2.9;2.4;;;;;;;;;;;;;
2023/07/14 03:33:53;;;;;;;2.6;2.3;;;;;;;;;;;;;
2023/07/14 03:36:20;;;;;;;2.9;2.4;;;;;;;;;;;;;
2023/07/14 03:38:44;;;;;;;5.1;2.6;;;;;;;;;;;;;
2023/07/14 03:41:09;;;;;;;4.5;2.5;;;;;;;;;;;;;
2023/07/14 03:43:35;;;;;;;3.2;2.2;;;;;;;;;;;;;
2023/07/14 03:46:01;;;;;;;2.8;2.1;;;;;;;;;;;;;
2023/07/14 03:48:26;;;;;;;2.9;2.4;;;;;;;;;;;;;
2023/07/14 03:50:52;;;;;;;4.2;2.8;;;;;;;;;;;;;
2023/07/14 03:53:17;;;;;;;5.3;3;;;;;;;;;;;;;
2023/07/14 03:55:42;;;;;;;3;2.5;;;;;;;;;;;;;
2023/07/14 03:58:07;;;;;;;3.7;2.5;;;;;;;;;;;;;
2023/07/14 04:02:36;;;;;;;4.6;2.5;;;;;;;12.96;100;941.0115;;;;
2023/07/14 04:05:13;;;;;;;3.3;2.4;;;;;;;12.94;100;940.9835;;;;
2023/07/14 04:07:46;;;;;;;2.9;2.3;;;;;;;13.06;100;940.9667;;;;
2023/07/14 04:10:19;;;;;;;2.6;2.4;;;;;;;13.11;100;940.9565;;;;
2023/07/14 04:12:44;;;;;;;2.6;2.4;;;;;;;13.23;100;940.9543;;;;
2023/07/14 04:15:21;;;;;;;3.7;2.6;;;;;;;12.96;100;940.926;;;;
2023/07/14 04:17:47;;;;;;;3.5;2.4;;;;;;;12.77;100;940.8976;;;;
2023/07/14 04:20:13;;;;;;;3.3;2.2;;;;;;;13.01;100;940.9055;;;;
2023/07/14 04:22:37;;;;;;;3.2;2.2;;;;;;;13.15;100;940.8975;;;;
2023/07/14 04:25:11;;;;;;;3;2.3;;;;;;;13.13;100;940.8239;;;;
2023/07/14 04:27:37;;;;;;;2.3;2;;;;;;;13.19;100;940.9331;;;;
2023/07/14 04:30:02;;;;;;;3.3;2.2;;;;;;;13.25;100;940.9673;;;;
2023/07/14 04:32:26;;;;;;;3.1;2.4;;;;;;;13.41;99.28223;940.947;;;;
2023/07/14 04:34:53;;;;;;;2.9;2.3;;;;;;;13.4;99.11719;940.8261;;;;
2023/07/14 04:37:18;;;;;;;3.6;2.2;;;;;;;13.46;98.33789;940.9089;;;;
2023/07/14 04:39:46;;;;;;;2.4;1.8;;;;;;;13.44;98.12695;940.9105;;;;
2023/07/14 04:42:11;;;;;;;4.2;2.4;;;;;;;13.47;97.89355;940.8155;;;;
2023/07/14 04:44:41;;;;;;;4;2.4;;;;;;;13.24;98.74707;940.7681;;;;
2023/07/14 04:47:10;;;;;;;3;2.2;;;;;;;13.31;99.08496;940.8379;;;;
2023/07/14 04:49:40;;;;;;;3.3;2.1;;;;;;;13.26;98.60352;940.7617;;;;
2023/07/14 04:52:05;;;;;;;3.4;2.1;;;;;;;13.31;98.96973;940.7731;;;;
2023/07/14 04:54:35;;;;;;;3;2.4;;;;;;;13.4;99.1416;940.723;;;;
2023/07/14 04:56:58;;;;;;;4.3;2.4;;;;;;;13.49;99.25195;940.6738;;;;
2023/07/14 04:59:28;;;;;;;4.3;2.3;;;;;;;13.53;99.37793;940.6899;;;;
2023/07/14 05:01:58;;;;;;;3.6;2.3;;;;;;;13.66;99.56934;940.6713;;;;
2023/07/14 05:04:24;;;;;;;4.5;2.2;;;;;;;13.82;99.27148;940.6069;;;;
2023/07/14 05:06:49;;;;;;;5;3;;;;;;;13.65;100;940.588;;;;
2023/07/14 05:09:21;;;;;;;3.9;2.7;;;;;;;13.39;100;940.539;;;;
2023/07/14 05:11:49;;;;;;;6;4.2;;;;;;;13.6;100;940.5164;;;;
2023/07/14 05:14:21;;;;;;;4.4;2.9;;;;;;;14.59;98.66406;940.4608;;;;
2023/07/14 05:16:46;;;;;;;3.1;2.5;;;;;;;15.63;91.75781;940.463;;;;
2023/07/14 05:19:19;;;;;;;6;2.5;;;;;;;16.64;86.36719;940.353;;;;
2023/07/14 05:21:49;;;;;;;3.5;1.6;;;;;;;17.24;82.60059;940.3528;;;;
2023/07/14 05:24:20;;;;;;;2.2;1.6;;;;;;;18.13;78.88672;940.3703;;;;
2023/07/14 05:26:49;;;;;;;2.6;1.5;;;;;;;18.28;77.36816;940.34;;;;
2023/07/14 05:29:14;;;;;;;2.5;1.4;;;;;;;18.95;74.55273;940.3508;;;;
2023/07/14 05:31:43;;;;;;;3.8;1.6;;;;;;;19.15;73.78418;940.3527;;;;
2023/07/14 05:34:08;;;;;;;2.8;1.5;;;;;;;19.39;71.80762;940.3336;;;;
2023/07/14 05:36:36;;;;;;;3;1.5;;;;;;;19.77;71.19336;940.3058;;;;
2023/07/14 05:38:58;;;;;;;1.6;1.5;;;;;;;20.5;68.40137;940.2776;;;;
2023/07/14 05:41:29;;;;;;;1.8;1.5;;;;;;;21.22;65.64648;940.1862;;;;
2023/07/14 05:43:56;;;;;;;3.1;1.6;;;;;;;21.06;64.45313;940.2271;;;;
2023/07/14 05:46:21;;;;;;;4.2;1.4;;;;;;;21.49;63.75586;940.145;;;;
2023/07/14 05:48:54;;;;;;;2.6;1.6;;;;;;;21.6;64.20508;940.1572;;;;
2023/07/14 05:51:23;;;;;;;2.6;1.7;;;;;;;21.72;63.55273;940.1215;;;;
2023/07/14 05:53:47;;;;;;;2.2;1.6;;;;;;;22.36;61.7334;940.1989;;;;
2023/07/14 05:56:15;;;;;;;2.3;1.5;;;;;;;23.01;59.36914;940.0989;;;;
2023/07/14 05:58:45;;;;;;;1.8;1.3;;;;;;;23.89;56.69824;940.0864;;;;
2023/07/14 06:01:10;;;;;;;1.8;1.3;;;;;;;24.13;57.10449;940.0731;;;;
2023/07/14 06:03:41;;;;;;;1.6;1.3;;;;;;;24;56.19336;940.0756;;;;
2023/07/14 06:06:11;;;;;;;1.3;1.2;;;;;;;24.58;54.09766;939.9269;;;;
2023/07/14 06:08:40;;;;;;;3;1.1;;;;;;;25.21;52.69727;939.967;;;;
2023/07/14 06:11:05;;;;;;;2.1;1.3;;;;;;;25.84;52.6416;939.9127;;;;
2023/07/14 06:13:31;;;;;;;2.1;1.3;;;;;;;25.56;51.56934;939.8635;;;;
2023/07/14 06:15:57;;;;;;;2.1;1.5;;;;;;;25.29;51.89258;939.7988;;;;
2023/07/14 06:18:26;;;;;;;3.3;1.4;;;;;;;25.18;51.96191;939.7495;;;;
2023/07/14 06:20:51;;;;;;;2.8;1.4;;;;;;;25.86;51.33203;939.7746;;;;
2023/07/14 06:23:19;;;;;;;1.3;1.2;;;;;;;25.88;50.10449;939.6611;;;;
2023/07/14 06:25:51;;;;;;;1.6;1.3;;;;;;;25.16;52.34863;939.6831;;;;
2023/07/14 06:28:20;;;;;;;2.1;1.1;;;;;;;26.1;50.48438;939.6189;;;;
2023/07/14 06:30:45;;;;;;;1.3;1.2;;;;;;;26.85;47.9502;939.6529;;;;
2023/07/14 06:33:14;;;;;;;1.4;1.2;;;;;;;27.46;47.52832;939.5666;;;;
2023/07/14 06:35:44;;;;;;;1.3;1.2;;;;;;;27.99;46.00488;939.6149;;;;
2023/07/14 06:38:14;;;;;;;1.3;1.1;;;;;;;28.45;44.62598;939.5569;;;;
2023/07/14 06:40:39;;;;;;;2.5;1.5;;;;;;;29.08;43.1875;939.4698;;;;
2023/07/14 06:43:09;;;;;;;1.1;1;;;;;;;28.94;43.43652;939.4381;;;;
2023/07/14 06:45:40;;;;;;;1.6;1.2;;;;;;;27.6;45.69238;939.478;;;;
2023/07/14 06:48:10;;;;;;;1.2;1.1;;;;;;;28.01;44.52246;939.4425;;;;
2023/07/14 06:50:41;;;;;;;2.3;1.4;;;;;;;26.76;48.41406;939.3616;;;;
2023/07/14 06:53:09;;;;;;;1.4;1.3;;;;;;;25.68;50.44922;939.3488;;;;
2023/07/14 06:55:34;;;;;;;2.2;1.2;;;;;;;26.07;50.43359;939.3622;;;;
2023/07/14 06:58:02;;;;;;;3.2;1.2;;;;;;;28.29;44.4541;939.3157;;;;
2023/07/14 07:00:30;;;;;;;1.4;1.1;;;;;;;29.37;42.20215;939.304;;;;
2023/07/14 07:02:59;;;;;;;1.5;1.4;;;;;;;28.78;43.34961;939.224;;;;
2023/07/14 07:05:29;;;;;;;2.3;1.2;;;;;;;28.08;44.95801;939.1941;;;;
2023/07/14 07:07:58;;;;;;;1.3;1.1;;;;;;;28.33;44.54199;939.2206;;;;
2023/07/14 07:10:24;;;;;;;1.4;1.3;;;;;;;28.4;44.8457;939.1495;;;;
2023/07/14 07:12:51;;;;;;;1.9;1.1;;;;;;;28.77;44.50293;939.1482;;;;
2023/07/14 07:15:18;;;;;;;2.5;1.3;;;;;;;29.21;42.10449;939.1199;;;;
2023/07/14 07:17:47;;;;;;;1.3;1.2;;;;;;;28.35;45.20996;939.0999;;;;
2023/07/14 07:20:11;;;;;;;1.4;1.2;;;;;;;29.12;42.57227;939.1025;;;;
2023/07/14 07:22:41;;;;;;;1.1;1;;;;;;;30.23;39.94238;939.0192;;;;
2023/07/14 07:25:06;;;;;;;1.5;1.1;;;;;;;30.57;39.43555;939.0023;;;;
2023/07/14 07:27:35;;;;;;;2.1;1.2;;;;;;;30.02;40.61621;939.0004;;;;
2023/07/14 07:30:05;;;;;;;1.7;1.2;;;;;;;31.21;37.54102;938.9719;;;;
2023/07/14 07:32:31;;;;;;;1.2;1.1;;;;;;;32.43;35.90332;938.9495;;;;
2023/07/14 07:35:00;;;;;;;1.5;1.3;;;;;;;31.51;36.4043;938.986;;;;
2023/07/14 07:37:28;;;;;;;1.4;1.2;;;;;;;31.24;36.71777;938.9774;;;;
2023/07/14 07:39:57;;;;;;;1.5;1.2;;;;;;;30.65;38.77344;938.8803;;;;
2023/07/14 07:42:22;;;;;;;1.3;1.2;;;;;;;29.73;40.17285;938.8655;;;;
2023/07/14 07:44:47;;;;;;;1;1;;;;;;;29.75;39.78125;938.7952;;;;
2023/07/14 07:47:12;;;;;;;2.3;1.2;;;;;;;29.09;40.75879;938.7462;;;;
2023/07/14 07:49:37;;;;;;;1.3;1.2;;;;;;;29.64;39.2832;938.7308;;;;
2023/07/14 07:52:11;;;;;;;2.5;1.4;;;;;;;28.54;43.06445;938.7167;;;;
2023/07/14 07:54:41;;;;;;;1.5;1.1;;;;;;;29.77;38.38867;938.6983;;;;
2023/07/14 07:57:06;;;;;;;1.3;1.2;;;;;;;29.91;37.91016;938.6375;;;;
2023/07/14 07:59:36;;;;;;;1.3;1.2;;;;;;;28.01;42.65723;938.7263;;;;
2023/07/14 08:02:08;;;;;;;1.5;1.2;;;;;;;27.7;44.57422;938.6717;;;;
2023/07/14 08:04:44;;;;;;;1.1;1;;;;;;;28.89;42.51465;938.6239;;;;
2023/07/14 08:07:10;;;;;;;1.4;1.3;;;;;;;27.41;43.5498;938.5499;;;;
2023/07/14 08:09:35;;;;;;;2.1;1.2;;;;;;;28.72;41.07031;938.4844;;;;
2023/07/14 08:12:00;;;;;;;1.4;1.3;;;;;;;28.85;41.70117;938.4573;;;;
2023/07/14 08:14:28;;;;;;;1.4;1.3;;;;;;;29.96;38.90527;938.4187;;;;
2023/07/14 08:16:53;;;;;;;1.7;1.4;;;;;;;30.97;38.9209;938.3289;;;;
2023/07/14 08:19:22;;;;;;;2.3;1.3;;;;;;;30.06;38.77051;938.3511;;;;
2023/07/14 08:21:46;;;;;;;1.2;1;;;;;;;30.45;38.27832;938.353;;;;
2023/07/14 08:24:15;;;;;;;1.3;1.2;;;;;;;28.09;41.55957;938.343;;;;
2023/07/14 08:26:40;;;;;;;1.6;1.4;;;;;;;28.6;42.16602;938.3641;;;;
2023/07/14 08:29:07;;;;;;;2;1.1;;;;;;;29.41;41.13281;938.3309;;;;
2023/07/14 08:31:32;;;;;;;1.5;1.1;;;;;;;31.16;37.05859;938.3604;;;;
2023/07/14 08:33:59;;;;;;;1.5;1.4;;;;;;;30.78;40.1709;938.4155;;;;
2023/07/14 08:36:24;;;;;;;1.5;1.4;;;;;;;30.32;38.2793;938.3311;;;;
2023/07/14 08:38:54;;;;;;;1.3;1.2;;;;;;;30.98;37.85645;938.2983;;;;
2023/07/14 08:41:17;;;;;;;1.2;1.1;;;;;;;30.27;38.39453;938.2553;;;;
2023/07/14 08:43:47;;;;;;;2.8;1.3;;;;;;;31.75;37.5625;938.2595;;;;
2023/07/14 08:46:12;;;;;;;1;1;;;;;;;31.87;35.7627;938.2452;;;;
2023/07/14 08:48:39;;;;;;;2;1.2;;;;;;;31.71;36.01367;938.1699;;;;
2023/07/14 08:51:03;;;;;;;3.4;1.5;;;;;;;30.1;37.66406;938.1782;;;;
2023/07/14 08:53:28;;;;;;;1.4;1.1;;;;;;;29.65;36.13574;938.1425;;;;
2023/07/14 08:55:53;;;;;;;1.3;1.1;;;;;;;30.35;38.04297;938.1108;;;;
2023/07/14 08:58:22;;;;;;;2.2;1.3;;;;;;;30.36;36.98145;938.1177;;;;
2023/07/14 09:00:48;;;;;;;2;1.3;;;;;;;30.88;37.33496;938.1024;;;;
2023/07/14 09:03:12;;;;;;;1.6;1.3;;;;;;;31.44;35.41699;938.154;;;;
2023/07/14 09:05:39;;;;;;;1.8;1.2;;;;;;;30.3;36.58203;938.1503;;;;
2023/07/14 09:08:04;;;;;;;1.7;1.2;;;;;;;31.21;37.41016;938.1244;;;;
2023/07/14 09:10:31;;;;;;;2.4;1.1;;;;;;;30.69;38.53809;938.1277;;;;
2023/07/14 09:12:56;;;;;;;3.7;1.4;;;;;;;30.15;41.15332;938.0818;;;;
2023/07/14 09:15:22;;;;;;;1.9;1.2;;;;;;;30.18;37.70605;938.0065;;;;
2023/07/14 09:17:48;;;;;;;2;1.4;;;;;;;30.68;38.89551;938.057;;;;
2023/07/14 09:20:17;;;;;;;2;1.3;;;;;;;30.18;38.37402;938.0387;;;;
2023/07/14 09:22:42;;;;;;;1.4;1.3;;;;;;;29.51;40.37988;937.9908;;;;
2023/07/14 09:25:08;;;;;;;1.2;1.1;;;;;;;29.36;44.84668;937.9892;;;;
2023/07/14 09:27:33;;;;;;;1.2;1.1;;;;;;;29.12;39.57129;937.993;;;;
2023/07/14 09:29:58;;;;;;;1.2;1.1;;;;;;;30.33;39.39063;937.9941;;;;
2023/07/14 09:32:30;;;;;;;1.5;1.4;;;;;;;29.43;40.54004;937.9856;;;;
2023/07/14 09:34:53;;;;;;;2.6;1.3;;;;;;;29.41;41.64551;937.9686;;;;
2023/07/14 09:37:19;;;;;;;1.2;1.1;;;;;;;29;41.79883;937.9247;;;;
2023/07/14 09:39:47;;;;;;;1.3;1.2;;;;;;;29.14;42.28711;937.8631;;;;
2023/07/14 09:42:12;;;;;;;1.2;1.1;;;;;;;29.09;41.97363;937.8988;;;;
2023/07/14 09:44:37;;;;;;;1.6;1.2;;;;;;;29.06;44.13867;937.8959;;;;
2023/07/14 09:47:04;;;;;;;2;1.2;;;;;;;28.65;42.76563;937.8331;;;;
2023/07/14 09:49:28;;;;;;;1.4;1.2;;;;;;;27.94;43.93359;937.8561;;;;
2023/07/14 09:51:56;;;;;;;1.3;1.2;;;;;;;28.12;44.58105;937.8554;;;;
2023/07/14 09:54:22;;;;;;;1.9;1.1;;;;;;;28.67;42.16016;937.8384;;;;
2023/07/14 09:56:47;;;;;;;1.6;1.2;;;;;;;29.18;45.37695;937.7975;;;;
2023/07/14 09:59:13;;;;;;;2.6;1.5;;;;;;;29.39;43.84961;937.7477;;;;
2023/07/14 10:01:42;;;;;;;1.4;1.3;;;;;;;28.58;42.90137;937.7913;;;;
2023/07/14 10:04:11;;;;;;;1.3;1.2;;;;;;;28.32;42.3418;937.772;;;;
2023/07/14 10:06:41;;;;;;;1.4;1.3;;;;;;;28.51;45.27344;937.7222;;;;
2023/07/14 10:09:11;;;;;;;1.9;1.5;;;;;;;28.92;46.73047;937.7283;;;;
2023/07/14 10:11:36;;;;;;;1.3;1.2;;;;;;;28.72;41.70117;937.6724;;;;
2023/07/14 10:14:05;;;;;;;60;5;;;;;;;28.16;46.28418;937.677;;;;
2023/07/14 10:16:29;;;;;;;57.6;6.1;;;;;;;28.39;45.58203;937.5803;;;;
2023/07/14 10:18:53;;;;;;;1.2;1.1;;;;;;;28.26;45.01074;937.5438;;;;
2023/07/14 10:21:21;;;;;;;2.2;1.3;;;;;;;28.23;46.5293;937.5477;;;;
2023/07/14 10:23:46;;;;;;;1.4;1.3;;;;;;;27.98;47.01367;937.541;;;;
2023/07/14 10:26:14;;;;;;;2.5;1.4;;;;;;;27.72;44.64746;937.4645;;;;
2023/07/14 10:28:38;;;;;;;2.9;1.1;;;;;;;27.75;50.17188;937.4758;;;;
2023/07/14 10:31:04;;;;;;;1.6;1.3;;;;;;;27.71;49.24121;937.421;;;;
2023/07/14 10:33:29;;;;;;;2.3;1.2;;;;;;;28.33;49.16602;937.4327;;;;
2023/07/14 10:35:59;;;;;;;1.8;1.2;;;;;;;28.31;46.19238;937.3458;;;;
2023/07/14 10:38:26;;;;;;;1.1;1.1;;;;;;;28.52;49.00781;937.3837;;;;
2023/07/14 10:40:52;;;;;;;1.2;1.1;;;;;;;28.71;45.8877;937.2713;;;;
2023/07/14 10:43:17;;;;;;;2.6;1.4;;;;;;;28.27;48.83789;937.2922;;;;
2023/07/14 10:45:42;;;;;;;1.6;1.4;;;;;;;28.65;47.5;937.2492;;;;
2023/07/14 10:48:12;;;;;;;1.6;1.4;;;;;;;27.9;48.07422;937.2317;;;;
2023/07/14 10:50:37;;;;;;;1.5;1.4;;;;;;;27.92;49.8457;937.1733;;;;
2023/07/14 10:53:03;;;;;;;1.8;1.3;;;;;;;28.13;49.3457;937.1552;;;;
2023/07/14 10:55:31;;;;;;;1.5;1.3;;;;;;;27.81;51.74512;937.1983;;;;
2023/07/14 10:57:57;;;;;;;2.9;1.4;;;;;;;27.89;50.06836;937.1845;;;;
2023/07/14 11:00:22;;;;;;;1.5;1.4;;;;;;;27.5;48.95703;937.0938;;;;
2023/07/14 11:02:47;;;;;;;1.4;1.3;;;;;;;27.43;52.74512;937.1434;;;;
2023/07/14 11:05:13;;;;;;;2.4;1.5;;;;;;;27.42;54.1084;937.0786;;;;
2023/07/14 11:07:39;;;;;;;1.8;1.4;;;;;;;27.4;51.95801;937.1141;;;;
2023/07/14 11:10:07;;;;;;;1.5;1.4;;;;;;;27.5;52.14844;936.9744;;;;
2023/07/14 11:12:34;;;;;;;3.8;1.8;;;;;;;26.98;57.30273;936.9352;;;;
2023/07/14 11:14:58;;;;;;;1.3;1.2;;;;;;;27.01;57.93457;936.9397;;;;
2023/07/14 11:17:27;;;;;;;1.5;1.4;;;;;;;27.15;55.51074;936.877;;;;
2023/07/14 11:19:55;;;;;;;1.4;1.3;;;;;;;27.54;53.86328;936.8769;;;;
2023/07/14 11:22:20;;;;;;;2.6;1.5;;;;;;;27.6;55.64941;936.8139;;;;
2023/07/14 11:24:45;;;;;;;2.5;1.5;;;;;;;27.31;57.03711;936.7299;;;;
2023/07/14 11:27:10;;;;;;;2.1;1.5;;;;;;;27.18;55.43262;936.683;;;;
2023/07/14 11:29:35;;;;;;;1.9;1.5;;;;;;;27.69;51.79102;936.7234;;;;
2023/07/14 11:32:00;;;;;;;1.8;1.5;;;;;;;27.93;50.70215;936.6799;;;;
2023/07/14 11:34:25;;;;;;;1.5;1.4;;;;;;;27.89;50.61426;936.5714;;;;
2023/07/14 11:36:50;;;;;;;2.3;1.5;;;;;;;27.33;57.5498;936.5613;;;;
2023/07/14 11:39:15;;;;;;;1.5;1.3;;;;;;;27.18;56.27344;936.4929;;;;
2023/07/14 11:41:40;;;;;;;2.2;1.8;;;;;;;27.1;56.44043;936.5016;;;;
2023/07/14 11:44:05;;;;;;;3.2;1.4;;;;;;;27.12;59.59766;936.4478;;;;
2023/07/14 11:46:31;;;;;;;2.3;1.7;;;;;;;27.48;54.0918;936.4586;;;;
2023/07/14 11:48:57;;;;;;;2.3;1.5;;;;;;;27.47;57.03418;936.437;;;;
2023/07/14 11:51:21;;;;;;;1.4;1.3;;;;;;;27.44;61.13574;936.3708;;;;
2023/07/14 11:53:46;;;;;;;1.5;1.4;;;;;;;27.65;55.52539;936.355;;;;
2023/07/14 11:56:12;;;;;;;3.6;1.7;;;;;;;27.7;56.95605;936.3627;;;;
2023/07/14 11:58:40;;;;;;;2.7;1.5;;;;;;;27.48;57.33105;936.3441;;;;
2023/07/14 12:01:06;;;;;;;2.4;1.5;;;;;;;27.47;56.53613;936.2989;;;;
2023/07/14 12:03:30;;;;;;;2.7;1.4;;;;;;;27.73;54.88184;936.3183;;;;
2023/07/14 12:05:56;;;;;;;2.4;1.5;;;;;;;27.95;52.74805;936.2756;;;;
2023/07/14 12:08:26;;;;;;;1.6;1.4;;;;;;;27.89;54.36719;936.2957;;;;
2023/07/14 12:10:52;;;;;;;1.9;1.7;;;;;;;27.9;55.42578;936.2086;;;;
2023/07/14 12:13:16;;;;;;;1.8;1.6;;;;;;;28.07;58.16699;936.2458;;;;
2023/07/14 12:15:50;;;;;;;1.5;1.4;;;;;;;28.28;52.72656;936.1113;;;;
2023/07/14 12:18:17;;;;;;;2.8;1.3;;;;;;;28.25;54.69727;936.103;;;;
2023/07/14 12:20:42;;;;;;;2.4;1.5;;;;;;;28.41;50.79199;936.0822;;;;
2023/07/14 12:23:11;;;;;;;2.2;1.3;;;;;;;28.48;54.06934;936.1258;;;;
2023/07/14 12:25:38;;;;;;;1.4;1.3;;;;;;;28.61;50.78027;936.0869;;;;
2023/07/14 12:28:03;;;;;;;1.6;1.4;;;;;;;28.38;55.31934;936.0032;;;;
2023/07/14 12:30:28;;;;;;;2.1;1.4;;;;;;;28.29;52.38281;935.9379;;;;
2023/07/14 12:32:53;;;;;;;1.8;1.4;;;;;;;28.54;49.41504;935.9367;;;;
2023/07/14 12:35:18;;;;;;;1.5;1.4;;;;;;;28.62;50.66113;935.8604;;;;
2023/07/14 12:37:50;;;;;;;2.6;1.6;;;;;;;28.76;49.61719;935.9164;;;;
2023/07/14 12:40:15;;;;;;;2.4;1.6;;;;;;;28.54;54.75488;935.9322;;;;
2023/07/14 12:42:45;;;;;;;2.5;1.5;;;;;;;28.7;49.40918;935.8997;;;;
2023/07/14 12:45:10;;;;;;;1.7;1.6;;;;;;;28.65;52.10352;935.9221;;;;
2023/07/14 12:47:43;;;;;;;1.5;1.4;;;;;;;28.82;51.75488;935.8963;;;;
2023/07/14 12:50:08;;;;;;;2.1;1.6;;;;;;;28.7;52.48926;935.8558;;;;
2023/07/14 12:52:38;;;;;;;1.9;1.6;;;;;;;28.68;53.69043;935.7836;;;;
2023/07/14 12:55:03;;;;;;;2.2;1.4;;;;;;;28.56;54.68555;935.8244;;;;
2023/07/14 12:57:31;;;;;;;1.8;1.5;;;;;;;28.18;51.9541;935.8058;;;;
2023/07/14 12:59:56;;;;;;;1.8;1.6;;;;;;;27.97;51.81152;935.7874;;;;
2023/07/14 13:02:27;;;;;;;2;1.7;;;;;;;27.74;53.04395;935.8013;;;;
2023/07/14 13:04:56;;;;;;;1.8;1.5;;;;;;;27.5;55.37598;935.8128;;;;
2023/07/14 13:07:21;;;;;;;2.2;1.8;;;;;;;27.61;53.22949;935.7924;;;;
2023/07/14 13:09:46;;;;;;;3.1;1.6;;;;;;;27.92;55.76074;935.7657;;;;
2023/07/14 13:12:11;;;;;;;1.7;1.6;;;;;;;28.14;52.66309;935.7229;;;;
2023/07/14 13:14:36;;;;;;;1.8;1.7;;;;;;;27.95;55.13477;935.733;;;;
2023/07/14 13:17:01;;;;;;;3.5;1.6;;;;;;;28.05;52.34375;935.7263;;;;
2023/07/14 13:19:26;;;;;;;1.7;1.6;;;;;;;28.01;53.74023;935.7007;;;;
2023/07/14 13:21:57;;;;;;;1.8;1.7;;;;;;;28.07;52.87988;935.7355;;;;
2023/07/14 13:24:22;;;;;;;2.4;1.7;;;;;;;28.06;56.12207;935.7001;;;;
2023/07/14 13:26:52;;;;;;;1.9;1.7;;;;;;;27.91;53.81152;935.6364;;;;
2023/07/14 13:29:21;;;;;;;2.4;1.6;;;;;;;28.12;53.57422;935.6301;;;;
2023/07/14 13:31:46;;;;;;;4.6;1.8;;;;;;;28.16;53.17578;935.6381;;;;
2023/07/14 13:34:15;;;;;;;2;1.6;;;;;;;28.23;53.69531;935.5585;;;;
2023/07/14 13:36:40;;;;;;;2.2;1.6;;;;;;;28.22;53.47949;935.5412;;;;
2023/07/14 13:39:06;;;;;;;1.7;1.6;;;;;;;28.1;54.65527;935.5175;;;;
2023/07/14 13:41:31;;;;;;;2.9;1.7;;;;;;;28.05;54.74316;935.5148;;;;
2023/07/14 13:43:57;;;;;;;2.9;1.7;;;;;;;27.86;58.21191;935.4797;;;;
2023/07/14 13:46:22;;;;;;;1.6;1.5;;;;;;;27.88;56.48047;935.3862;;;;
2023/07/14 13:48:49;;;;;;;2.2;1.7;;;;;;;27.8;55.95898;935.4433;;;;
2023/07/14 13:51:14;;;;;;;1.7;1.6;;;;;;;27.93;55.14355;935.4684;;;;
2023/07/14 13:53:39;;;;;;;2.7;1.7;;;;;;;27.87;54.35449;935.4339;;;;
2023/07/14 13:56:05;;;;;;;1.9;1.7;;;;;;;27.92;55.9502;935.307;;;;
2023/07/14 13:58:33;;;;;;;1.8;1.6;;;;;;;27.79;55.67285;935.3823;;;;
2023/07/14 14:00:56;;;;;;;2.2;1.7;;;;;;;27.84;55.56152;935.4375;;;;
2023/07/14 14:03:25;;;;;;;3.5;1.8;;;;;;;27.85;56.04883;935.371;;;;
2023/07/14 14:05:51;;;;;;;2.3;1.9;;;;;;;27.81;55.49707;935.3494;;;;
2023/07/14 14:08:17;;;;;;;2.4;1.9;;;;;;;27.81;56.85059;935.3828;;;;
2023/07/14 14:10:40;;;;;;;1.8;1.7;;;;;;;27.54;56.48438;935.331;;;;
2023/07/14 14:13:08;;;;;;;2;1.8;;;;;;;27.65;58.16113;935.274;;;;
2023/07/14 14:15:42;;;;;;;3.7;1.7;;;;;;;27.79;55.94531;935.2092;;;;
2023/07/14 14:18:07;;;;;;;2.7;1.6;;;;;;;27.64;56.77148;935.2475;;;;
2023/07/14 14:20:35;;;;;;;2.2;1.6;;;;;;;27.62;57.17188;935.2514;;;;
2023/07/14 14:23:04;;;;;;;3.9;1.7;;;;;;;27.7;57.58496;935.2244;;;;
2023/07/14 14:25:26;;;;;;;2;1.8;;;;;;;27.86;57.26172;935.1328;;;;
2023/07/14 14:27:56;;;;;;;2.8;1.8;;;;;;;28;55.72266;935.2397;;;;
2023/07/14 14:30:25;;;;;;;1.8;1.7;;;;;;;28.06;54.10254;935.1703;;;;
2023/07/14 14:32:50;;;;;;;3.8;1.8;;;;;;;27.91;58.27637;935.1616;;;;
2023/07/14 14:35:15;;;;;;;1.7;1.6;;;;;;;27.97;56.85938;935.0644;;;;
2023/07/14 14:37:43;;;;;;;2.1;1.8;;;;;;;27.88;56.72949;935.0695;;;;
2023/07/14 14:40:15;;;;;;;2.9;2.3;;;;;;;27.73;55.52441;935.0553;;;;
2023/07/14 14:42:49;;;;;;;3.4;2;;;;;;;27.68;55.70605;934.9949;;;;
2023/07/14 14:45:16;;;;;;;2;1.8;;;;;;;27.77;55.70605;935.0556;;;;
2023/07/14 14:47:47;;;;;;;4;1.8;;;;;;;27.87;57.42871;934.993;;;;
2023/07/14 14:50:16;;;;;;;6.9;2;;;;;;;27.88;55.76758;934.9294;;;;
2023/07/14 14:52:41;;;;;;;2.6;2.1;;;;;;;27.7;56.57617;934.9004;;;;
2023/07/14 14:55:14;;;;;;;2.7;1.9;;;;;;;27.8;55.15332;934.9405;;;;
2023/07/14 14:57:42;;;;;;;2.2;1.6;;;;;;;27.67;58.09082;934.9131;;;;
2023/07/14 15:00:17;;;;;;;2.4;1.8;;;;;;;27.78;56.05176;934.9336;;;;
2023/07/14 15:02:43;;;;;;;2.7;2.1;;;;;;;27.85;55.25391;934.882;;;;
2023/07/14 15:05:07;;;;;;;2.1;1.9;;;;;;;27.78;56.38477;934.802;;;;
2023/07/14 15:07:36;;;;;;;2.1;1.9;;;;;;;27.84;56.7002;934.788;;;;
2023/07/14 15:10:06;;;;;;;2;1.8;;;;;;;27.86;56.34668;934.7742;;;;
2023/07/14 15:12:31;;;;;;;2.1;1.9;;;;;;;27.81;56.35352;934.7712;;;;
2023/07/14 15:14:58;;;;;;;2.6;1.9;;;;;;;27.76;56.78613;934.7378;;;;
2023/07/14 15:17:27;;;;;;;1.9;1.8;;;;;;;27.72;56.34082;934.6864;;;;
2023/07/14 15:19:51;;;;;;;2.2;1.9;;;;;;;27.84;57.47266;934.764;;;;
2023/07/14 15:22:16;;;;;;;2.6;1.9;;;;;;;27.87;57.13281;934.7759;;;;
2023/07/14 15:24:43;;;;;;;2.9;1.9;;;;;;;27.82;56.1748;934.6809;;;;
2023/07/14 15:27:08;;;;;;;2.8;2.1;;;;;;;27.67;59.11328;934.6674;;;;
2023/07/14 15:29:33;;;;;;;4.9;2.4;;;;;;;27.67;59.41992;934.7216;;;;
2023/07/14 15:31:58;;;;;;;5;2.2;;;;;;;27.58;60.26367;934.66;;;;
2023/07/14 15:34:27;;;;;;;3.2;2;;;;;;;27.62;57.17188;934.6961;;;;
2023/07/14 15:36:53;;;;;;;2.5;1.8;;;;;;;27.52;58.91504;934.635;;;;
2023/07/14 15:39:18;;;;;;;1.7;1.6;;;;;;;27.39;57.87695;934.617;;;;
2023/07/14 15:41:46;;;;;;;2.1;1.9;;;;;;;27.53;57.04199;934.5722;;;;